createdAt,value
2022-11-28T00:03:11.169Z,80.92
2022-11-28T00:08:17.008Z,81.10
2022-11-28T00:13:22.472Z,80.21
2022-11-28T00:18:28.403Z,80.36
2022-11-28T00:23:34.295Z,80.54
2022-11-28T00:28:40.066Z,80.91
2022-11-28T00:33:45.600Z,80.75
2022-11-28T00:38:52.033Z,80.87
2022-11-28T00:43:58.448Z,80.78
2022-11-28T00:49:04.120Z,80.57
2022-11-28T00:54:09.646Z,80.69
2022-11-28T00:59:15.133Z,80.50
2022-11-28T01:04:20.534Z,80.76
2022-11-28T01:09:26.447Z,80.32
2022-11-28T01:14:32.183Z,80.72
2022-11-28T01:19:37.644Z,80.34
2022-11-28T01:24:43.312Z,80.04
2022-11-28T01:29:49.105Z,80.08
2022-11-28T01:34:54.574Z,80.14
2022-11-28T01:40:00.038Z,79.92
2022-11-28T01:45:23.634Z,79.75
2022-11-28T01:50:30.701Z,79.91
2022-11-28T01:55:39.197Z,79.95
2022-11-28T02:00:44.632Z,79.78
2022-11-28T02:05:52.491Z,79.77
2022-11-28T02:11:17.239Z,79.55
2022-11-28T02:16:28.390Z,79.26
2022-11-28T02:21:46.050Z,79.50
2022-11-28T02:27:03.336Z,79.28
2022-11-28T02:32:22.979Z,79.54
2022-11-28T02:37:37.383Z,78.88
2022-11-28T02:42:48.409Z,78.97
2022-11-28T02:47:56.827Z,78.95
2022-11-28T02:53:17.107Z,78.70
2022-11-28T02:58:22.506Z,78.18
2022-11-28T03:03:46.321Z,78.71
2022-11-28T03:09:07.123Z,78.43
2022-11-28T03:14:27.620Z,78.46
2022-11-28T03:19:36.129Z,77.94
2022-11-28T03:25:02.558Z,78.06
2022-11-28T03:30:19.662Z,77.73
2022-11-28T03:35:28.059Z,77.46
2022-11-28T03:40:36.495Z,77.28
2022-11-28T03:45:44.939Z,77.27
2022-11-28T03:50:53.385Z,77.07
2022-11-28T03:56:14.048Z,77.16
2022-11-28T04:01:42.170Z,76.62
2022-11-28T04:06:56.746Z,76.85
2022-11-28T04:12:11.243Z,76.75
2022-11-28T04:17:22.642Z,76.90
2022-11-28T04:22:33.816Z,76.93
2022-11-28T04:27:45.078Z,77.13
2022-11-28T04:32:53.523Z,77.63
2022-11-28T04:38:01.290Z,77.72
2022-11-28T04:43:12.575Z,77.62
2022-11-28T04:48:18.495Z,77.62
2022-11-28T04:53:45.269Z,77.91
2022-11-28T04:58:51.973Z,77.70
2022-11-28T05:03:58.169Z,77.77
2022-11-28T05:09:04.598Z,77.78
2022-11-28T05:14:10.236Z,77.84
2022-11-28T05:19:16.156Z,78.00
2022-11-28T05:24:22.570Z,77.67
2022-11-28T05:29:28.112Z,78.10
2022-11-28T05:34:33.493Z,77.93
2022-11-28T05:39:39.048Z,77.70
2022-11-28T05:44:44.442Z,77.77
2022-11-28T05:49:49.906Z,77.75
2022-11-28T05:54:55.367Z,77.92
2022-11-28T06:00:00.834Z,77.76
2022-11-28T06:05:34.825Z,77.62
2022-11-28T06:10:15.781Z,77.79
2022-11-28T06:15:21.168Z,77.30
2022-11-28T06:20:26.801Z,77.30
2022-11-28T06:25:32.193Z,77.13
2022-11-28T06:30:37.668Z,76.73
2022-11-28T06:35:43.133Z,76.73
2022-11-28T06:40:48.543Z,76.51
2022-11-28T06:45:54.135Z,76.00
2022-11-28T06:51:06.568Z,76.09
2022-11-28T06:56:14.977Z,76.11
2022-11-28T07:01:22.981Z,75.61
2022-11-28T07:06:29.809Z,75.82
2022-11-28T07:11:35.208Z,75.96
2022-11-28T07:16:41.344Z,75.20
2022-11-28T07:21:46.889Z,74.74
2022-11-28T07:26:52.449Z,74.99
2022-11-28T07:31:57.941Z,74.86
2022-11-28T07:37:03.641Z,74.64
2022-11-28T07:42:09.040Z,74.52
2022-11-28T07:47:14.435Z,74.05
2022-11-28T07:52:19.844Z,73.95
2022-11-28T07:57:25.309Z,74.03
2022-11-28T08:02:32.671Z,73.36
2022-11-28T08:07:38.282Z,73.29
2022-11-28T08:12:43.897Z,73.37
2022-11-28T08:17:49.309Z,72.98
2022-11-28T08:22:54.711Z,72.59
2022-11-28T08:28:00.176Z,69.64
2022-11-28T08:33:05.572Z,70.89
2022-11-28T08:38:10.971Z,71.78
2022-11-28T08:43:16.372Z,70.75
2022-11-28T08:48:21.877Z,71.34
2022-11-28T08:53:27.918Z,71.29
2022-11-28T08:58:33.325Z,70.66
2022-11-28T09:03:38.823Z,70.37
2022-11-28T09:08:45.353Z,69.85
2022-11-28T09:13:51.292Z,69.80
2022-11-28T09:18:58.712Z,69.91
2022-11-28T09:24:04.419Z,66.77
2022-11-28T09:29:09.814Z,68.24
2022-11-28T09:34:15.201Z,68.12
2022-11-28T09:39:20.615Z,68.48
2022-11-28T09:44:53.808Z,68.26
2022-11-28T09:50:07.004Z,68.09
2022-11-28T09:55:35.834Z,67.96
2022-11-28T10:00:44.287Z,68.44
2022-11-28T10:05:55.413Z,67.68
2022-11-28T10:11:06.823Z,67.50
2022-11-28T10:16:21.162Z,67.54
2022-11-28T10:21:29.741Z,69.32
2022-11-28T10:26:40.255Z,68.24
2022-11-28T10:31:47.761Z,67.14
2022-11-28T10:37:12.815Z,67.10
2022-11-28T10:42:49.744Z,66.78
2022-11-28T10:48:38.915Z,66.60
2022-11-28T10:53:26.209Z,66.66
2022-11-28T10:58:34.676Z,65.72
2022-11-28T11:03:41.685Z,65.81
2022-11-28T11:08:48.723Z,66.02
2022-11-28T11:14:08.776Z,65.63
2022-11-28T11:19:19.788Z,65.74
2022-11-28T11:24:25.175Z,65.58
2022-11-28T11:29:35.707Z,65.02
2022-11-28T11:34:46.583Z,64.74
2022-11-28T11:39:54.151Z,65.11
2022-11-28T11:45:18.849Z,64.91
2022-11-28T11:50:26.682Z,64.69
2022-11-28T11:55:34.952Z,63.95
2022-11-28T12:00:42.363Z,63.42
2022-11-28T12:06:16.375Z,64.26
2022-11-28T12:11:03.790Z,63.24
2022-11-28T12:16:27.322Z,63.25
2022-11-28T12:21:38.618Z,63.75
2022-11-28T12:26:58.915Z,62.44
2022-11-28T12:32:07.350Z,62.35
2022-11-28T12:38:02.661Z,62.20
2022-11-28T12:43:18.613Z,62.60
2022-11-28T12:48:53.598Z,62.07
2022-11-28T12:54:02.304Z,62.31
2022-11-28T12:59:11.786Z,61.96
2022-11-28T13:04:31.963Z,61.82
2022-11-28T13:09:46.841Z,61.78
2022-11-28T13:15:01.738Z,61.99
2022-11-28T13:20:28.051Z,61.67
2022-11-28T13:25:48.688Z,61.66
2022-11-28T13:31:00.077Z,62.03
2022-11-28T13:36:08.332Z,61.76
2022-11-28T13:41:59.474Z,61.43
2022-11-28T13:46:31.855Z,61.69
2022-11-28T13:51:37.954Z,61.76
2022-11-28T13:56:44.299Z,61.74
2022-11-28T14:01:52.769Z,61.99
2022-11-28T14:07:04.991Z,62.12
2022-11-28T14:12:22.540Z,62.15
2022-11-28T14:17:36.622Z,62.60
2022-11-28T14:23:08.762Z,62.62
2022-11-28T14:28:37.021Z,63.00
2022-11-28T14:33:44.830Z,63.12
2022-11-28T14:39:06.407Z,63.43
2022-11-28T14:44:50.732Z,63.51
2022-11-28T14:50:13.234Z,63.92
2022-11-28T14:55:28.233Z,64.09
2022-11-28T15:00:51.649Z,64.27
2022-11-28T15:06:06.044Z,64.18
2022-11-28T15:11:39.312Z,64.54
2022-11-28T15:16:50.635Z,64.40
2022-11-28T15:21:58.437Z,64.83
2022-11-28T15:27:12.718Z,65.04
2022-11-28T15:32:18.325Z,65.12
2022-11-28T15:37:27.101Z,65.14
2022-11-28T15:42:35.506Z,65.24
2022-11-28T15:47:41.537Z,65.51
2022-11-28T15:53:17.650Z,65.29
2022-11-28T15:58:31.272Z,65.64
2022-11-28T16:03:46.495Z,65.81
2022-11-28T16:09:01.022Z,65.82
2022-11-28T16:14:11.937Z,66.39
2022-11-28T16:19:36.080Z,66.84
2022-11-28T16:24:50.302Z,66.75
2022-11-28T16:29:56.110Z,66.97
2022-11-28T16:35:03.464Z,66.99
2022-11-28T16:40:23.641Z,67.27
2022-11-28T16:45:32.769Z,67.59
2022-11-28T16:50:38.949Z,67.42
2022-11-28T16:55:46.244Z,67.70
2022-11-28T17:01:03.263Z,67.45
2022-11-28T17:06:11.898Z,68.00
2022-11-28T17:11:20.101Z,68.14
2022-11-28T17:16:28.267Z,68.11
2022-11-28T17:21:46.071Z,68.23
2022-11-28T17:26:53.171Z,68.43
2022-11-28T17:31:59.537Z,68.61
2022-11-28T17:37:05.374Z,68.81
2022-11-28T17:42:12.127Z,68.90
2022-11-28T17:47:17.528Z,69.13
2022-11-28T17:52:24.873Z,69.28
2022-11-28T17:57:30.798Z,69.37
2022-11-28T18:02:36.238Z,69.71
2022-11-28T18:07:41.882Z,69.79
2022-11-28T18:12:49.038Z,70.02
2022-11-28T18:17:56.487Z,70.21
2022-11-28T18:23:01.953Z,70.14
2022-11-28T18:28:07.986Z,70.46
2022-11-28T18:33:14.680Z,70.07
2022-11-28T18:38:20.676Z,70.57
2022-11-28T18:43:26.077Z,70.50
2022-11-28T18:48:31.464Z,70.66
2022-11-28T18:53:37.415Z,70.65
2022-11-28T18:58:44.844Z,70.41
2022-11-28T19:03:53.485Z,70.41
2022-11-28T19:09:01.600Z,70.60
2022-11-28T19:14:08.114Z,70.58
2022-11-28T19:19:13.978Z,70.43
2022-11-28T19:24:19.424Z,70.24
2022-11-28T19:29:25.311Z,70.38
2022-11-28T19:34:31.023Z,70.46
2022-11-28T19:39:36.447Z,70.46
2022-11-28T19:44:41.934Z,70.05
2022-11-28T19:49:47.539Z,67.96
2022-11-28T19:54:53.503Z,69.00
2022-11-28T19:59:58.973Z,69.87
2022-11-28T20:05:04.446Z,69.86
2022-11-28T20:10:11.020Z,70.17
2022-11-28T20:15:18.492Z,70.18
2022-11-28T20:20:24.981Z,70.36
2022-11-28T20:25:30.710Z,70.42
2022-11-28T20:30:37.697Z,70.23
2022-11-28T20:35:43.271Z,70.53
2022-11-28T20:40:48.745Z,70.52
2022-11-28T20:45:54.203Z,70.78
2022-11-28T20:51:00.000Z,70.78
2022-11-28T20:56:07.707Z,70.50
2022-11-28T21:01:18.442Z,70.96
2022-11-28T21:06:24.322Z,70.96
2022-11-28T21:11:55.582Z,70.94
2022-11-28T21:16:37.377Z,71.22
2022-11-28T21:21:43.355Z,71.22
2022-11-28T21:26:53.459Z,71.43
2022-11-28T21:31:56.517Z,71.49
2022-11-28T21:37:01.927Z,71.61
2022-11-28T21:42:07.592Z,71.48
2022-11-28T21:47:13.327Z,71.50
2022-11-28T21:52:20.433Z,71.44
2022-11-28T21:57:25.831Z,71.73
2022-11-28T22:02:31.828Z,71.64
2022-11-28T22:07:37.589Z,71.88
2022-11-28T22:12:45.732Z,71.91
2022-11-28T22:17:51.198Z,71.89
2022-11-28T22:22:56.580Z,71.75
2022-11-28T22:28:02.633Z,72.08
2022-11-28T22:33:08.362Z,72.17
2022-11-28T22:38:18.468Z,72.29
2022-11-28T22:43:24.051Z,72.29
2022-11-28T22:48:31.376Z,72.63
2022-11-28T22:53:36.938Z,72.66
2022-11-28T22:58:44.860Z,72.61
2022-11-28T23:03:51.251Z,72.79
2022-11-28T23:08:58.179Z,71.25
2022-11-28T23:14:05.408Z,71.98
2022-11-28T23:19:17.265Z,72.38
2022-11-28T23:24:24.128Z,72.75
2022-11-28T23:29:30.428Z,73.01
2022-11-28T23:34:36.282Z,73.01
2022-11-28T23:39:41.750Z,73.16
2022-11-28T23:44:47.775Z,73.32
2022-11-28T23:49:54.613Z,73.27
2022-11-28T23:55:00.103Z,73.37
